• Join FlightAware (Why Join?)
  • Login
  • US Flag 
02:30AM EST


 

Airport Tracker/Info


-or-


 

Live Flight TrackerFlight Track Log ✈ TRS14 ✈ 01-May-2012 ✈ KLAX - KMKE

Flight Track Log - Related Links

Times and Time Zones

All times are in EDT time to prevent confusion due to time zone crossing. See the TRS14 flight status page for this flight to view local times or setup timezone preferences in your user account.

Time Position Orientation Groundspeed Altitude Reporting Facility
EDT Latitude Longitude Course Direction KTS MPH feet Rate Location/Type
03:10PM 33.9500 -118.4500 261° West 164 189 900  Level Southern California TRACON
03:11PM 33.9411 -118.5175 238° Southwest 195 224 3,000 2,460 Climbing Los Angeles Center
03:12PM 33.9064 -118.5839 116° Southeast 230 265 6,200 3,120 Climbing Los Angeles Center
03:13PM 33.8764 -118.5106 48° Northeast 121 139 9,300 2,700 Climbing Los Angeles Center
03:14PM 33.9364 -118.4297 55° Northeast 121 139 11,700 2,400 Climbing Los Angeles Center
03:15PM 33.9947 -118.3286 56° Northeast 251 289 14,100 2,460 Climbing Los Angeles Center
03:16PM 34.0550 -118.2197 55° Northeast 322 371 16,700 2,280 Climbing Los Angeles Center
03:17PM 34.1067 -118.1308 56° Northeast 363 418 18,700 2,280 Climbing Los Angeles Center
03:18PM 34.1753 -118.0069 55° Northeast 391 450 21,300 2,400 Climbing Los Angeles Center
03:19PM 34.2439 -117.8903 57° Northeast 414 476 23,500 1,800 Climbing Los Angeles Center
03:20PM 34.3147 -117.7586 57° Northeast 414 476 25,000 1,500 Climbing Los Angeles Center
03:21PM 34.3831 -117.6314 53° Northeast 425 489 26,500 1,140 Climbing Los Angeles Center
03:22PM 34.4617 -117.5069 49° Northeast 449 517 27,300 1,200 Climbing Los Angeles Center
03:23PM 34.5464 -117.3897 49° Northeast 455 524 28,900 1,500 Climbing Los Angeles Center
03:24PM 34.6311 -117.2700 50° Northeast 460 529 30,400 1,620 Climbing Los Angeles Center
03:25PM 34.7158 -117.1472 49° Northeast 471 542 32,200 1,560 Climbing Los Angeles Center
03:26PM 34.8022 -117.0244 50° Northeast 471 542 33,600 1,440 Climbing Los Angeles Center
03:27PM 34.8867 -116.9011 49° Northeast 471 542 35,100 1,440 Climbing Los Angeles Center
03:28PM 34.9728 -116.7803 50° Northeast 471 542 36,500 1,200 Climbing Los Angeles Center
03:29PM 35.0569 -116.6592 50° Northeast 471 542 37,500 900 Climbing Los Angeles Center
03:30PM 35.1408 -116.5378 50° Northeast 471 542 38,400 660 Climbing Los Angeles Center
03:31PM 35.2247 -116.4136 49° Northeast 476 548 38,900 300 Climbing Los Angeles Center
03:32PM 35.3125 -116.2892 51° Northeast 471 542 39,000  Climbing Los Angeles Center
03:33PM 35.3961 -116.1644 50° Northeast 476 548 39,000  Level Los Angeles Center
03:34PM 35.4839 -116.0372 51° Northeast 476 548 39,000  Level Los Angeles Center
03:35PM 35.5672 -115.9119 49° Northeast 476 548 39,000  Level Los Angeles Center
03:36PM 35.6544 -115.7889 49° Northeast 476 548 39,000  Level Los Angeles Center
03:37PM 35.7333 -115.6786 51° Northeast 476 548 39,000  Level Los Angeles Center
03:38PM 35.8267 -115.5372 51° Northeast 476 548 39,000  Level Los Angeles Center
03:39PM 35.9117 -115.4083 50° Northeast 481 554 39,000  Level Los Angeles Center
03:40PM 35.9964 -115.2819 53° Northeast 481 554 39,000  Level Los Angeles Center
03:41PM 36.0767 -115.1500 66° East 476 548 39,000  Level Los Angeles Center
03:42PM 36.1297 -115.0003 69° East 476 548 39,000  Level Los Angeles Center
03:43PM 36.1781 -114.8428 69° East 476 548 39,000  Level Los Angeles Center
03:44PM 36.2264 -114.6847 69° East 476 548 39,000  Level Los Angeles Center
03:45PM 36.2747 -114.5294 69° East 481 554 39,000  Level Los Angeles Center
03:46PM 36.3225 -114.3739 69° East 481 554 39,000  Level Los Angeles Center
03:47PM 36.3703 -114.2156 70° East 481 554 39,000  Level Los Angeles Center
03:48PM 36.4178 -114.0569 70° East 486 559 39,000  Level Los Angeles Center
03:49PM 36.4650 -113.8981 70° East 486 559 39,000  Level Los Angeles Center
03:50PM 36.5022 -113.7681 70° East 491 565 39,000  Level Los Angeles Center
03:51PM 36.5531 -113.5983 70° East 491 565 39,000  Level Los Angeles Center
03:52PM 36.5997 -113.4367 70° East 491 565 39,000  Level Los Angeles Center
03:53PM 36.6461 -113.2772 71° East 491 565 39,000  Level Los Angeles Center
03:54PM 36.6961 -113.0992 70° East 491 565 39,000  Level Los Angeles Center
03:55PM 36.7442 -112.9367 71° East 491 565 39,000  Level Los Angeles Center
03:56PM 36.7897 -112.7742 71° East 491 565 39,000  Level Los Angeles Center
03:57PM 36.8372 -112.6061 70° East 491 565 39,000  Level Los Angeles Center
03:58PM 36.8844 -112.4431 71° East 491 565 39,000  Level Los Angeles Center
03:59PM 36.9294 -112.2800 72° East 491 565 39,000  Level Los Angeles Center
04:01PM 36.9903 -112.0478 71° East 496 571 39,000  Level Denver Center
04:02PM 37.0386 -111.8669 70° East 496 571 39,000  Level Denver Center
04:03PM 37.0858 -111.7039 70° East 490 564 39,000  Level Denver Center
04:04PM 37.1331 -111.5381 72° East 496 571 39,000  Level Denver Center
04:05PM 37.1758 -111.3717 72° East 496 571 39,000  Level Denver Center
04:06PM 37.2206 -111.2028 72° East 496 571 39,000  Level Denver Center
04:07PM 37.2647 -111.0361 71° East 496 571 39,000  Level Denver Center
04:08PM 37.3136 -110.8539 71° East 496 571 39,000  Level Denver Center
04:09PM 37.3575 -110.6894 72° East 496 571 39,000  Level Denver Center
04:10PM 37.4011 -110.5222 72° East 496 571 39,000  Level Denver Center
04:11PM 37.4467 -110.3494 69° East 496 571 39,000  Level Denver Center
04:12PM 37.4981 -110.1822 72° East 496 571 39,000  Level Denver Center
04:13PM 37.5411 -110.0142 72° East 501 577 39,000  Level Denver Center
04:14PM 37.5792 -109.8617 72° East 495 570 39,000  Level Denver Center
04:15PM 37.6261 -109.6778 72° East 495 570 39,000  Level Denver Center
04:16PM 37.6706 -109.5042 73° East 495 570 39,000  Level Denver Center
04:17PM 37.7125 -109.3328 73° East 495 570 39,000  Level Denver Center
04:18PM 37.7494 -109.1819 73° East 500 575 39,000  Level Denver Center
04:19PM 37.7956 -108.9919 68° East 500 575 39,000  Level Denver Center
04:20PM 37.8492 -108.8203 66° East 512 589 39,000  Level Denver Center
04:21PM 37.9067 -108.6592 67° East 512 589 39,000  Level Denver Center
04:22PM 37.9575 -108.5081 67° East 512 589 39,000  Level Denver Center
04:23PM 38.0144 -108.3408 66° East 512 589 39,000  Level Denver Center
04:24PM 38.0714 -108.1789 68° East 507 583 39,000  Level Denver Center
04:25PM 38.1236 -108.0167 66° East 494 568 39,000  Level Denver Center
04:26PM 38.1864 -107.8331 67° East 494 568 39,000  Level Denver Center
04:27PM 38.2425 -107.6650 66° East 504 580 39,000  Level Denver Center
04:28PM 38.2942 -107.5153 68° East 511 588 39,000  Level Denver Center
04:29PM 38.3539 -107.3281 66° East 520 598 39,000  Level Denver Center
04:30PM 38.4114 -107.1644 69° East 515 593 39,000  Level Denver Center
04:31PM 38.4625 -106.9928 76° East 515 593 39,000  Level Denver Center
04:32PM 38.4922 -106.8364 76° East 504 580 39,000  Level Denver Center
04:33PM 38.5303 -106.6428 76° East 498 573 39,000  Level Denver Center
04:34PM 38.5636 -106.4706 76° East 498 573 39,000  Level Denver Center
04:35PM 38.5969 -106.2950 77° East 503 579 39,000  Level Denver Center
04:36PM 38.6278 -106.1169 76° East 508 585 39,000  Level Denver Center
04:37PM 38.6606 -105.9442 75° East 514 592 39,000  Level Denver Center
04:38PM 38.6950 -105.7736 76° East 502 578 39,000  Level Denver Center
04:39PM 38.7292 -105.5975 77° East 502 578 39,000  Level Denver Center
04:40PM 38.7592 -105.4269 76° East 497 572 39,000  Level Denver Center
04:41PM 38.7928 -105.2558 77° East 491 565 39,000  Level Denver Center
04:42PM 38.8222 -105.0847 77° East 486 559 39,000  Level Denver Center
04:43PM 38.8533 -104.9136 76° East 491 565 39,000  Level Denver Center
04:44PM 38.8864 -104.7422 78° East 491 565 39,000  Level Denver Center
04:45PM 38.9150 -104.5706 77° East 491 565 39,000  Level Denver Center
04:46PM 38.9472 -104.3961 77° East 491 565 39,000  Level Denver Center
04:47PM 38.9775 -104.2217 77° East 491 565 39,000  Level Denver Center
04:48PM 39.0056 -104.0658 77° East 491 565 39,000  Level Denver Center
04:49PM 39.0372 -103.8908 78° East 491 565 39,000  Level Denver Center
04:50PM 39.0644 -103.7189 77° East 491 565 39,000  Level Denver Center
04:51PM 39.0956 -103.5408 78° East 491 565 39,000  Level Denver Center
04:52PM 39.1244 -103.3683 78° East 491 565 39,000  Level Denver Center
04:53PM 39.1528 -103.1958 77° East 491 565 39,000  Level Denver Center
04:54PM 39.1833 -103.0256 78° East 491 565 39,000  Level Denver Center
04:55PM 39.2114 -102.8525 80° East 491 565 39,000  Level Denver Center
04:56PM 39.2350 -102.6825 78° East 491 565 39,000  Level Denver Center
04:57PM 39.2661 -102.4875 78° East 491 565 39,000  Level Denver Center
04:58PM 39.2933 -102.3169 79° East 491 565 39,000  Level Denver Center
04:59PM 39.3183 -102.1464 78° East 486 559 39,000  Level Denver Center
05:00PM 39.3469 -101.9725 79° East 491 565 39,000  Level Denver Center
05:01PM 39.3714 -101.8017 78° East 486 559 39,000  Level Denver Center
05:02PM 39.3964 -101.6494 78° East 479 551 39,000  Level Denver Center
05:03PM 39.4281 -101.4592 78° East 479 551 39,000  Level Denver Center
05:04PM 39.4558 -101.2903 77° East 484 557 39,000  Level Denver Center
05:05PM 39.4822 -101.1375 77° East 479 551 39,000  Level Denver Center
05:06PM 39.5119 -100.9683 78° East 474 545 39,000  Level Denver Center
05:07PM 39.5442 -100.7744 77° East 487 560 39,000  Level Denver Center
05:08PM 39.5731 -100.6050 79° East 487 560 39,000  Level Denver Center
05:09PM 39.5964 -100.4492 78° East 492 566 39,000  Level Denver Center
05:10PM 39.6278 -100.2575 78° East 492 566 39,000  Level Denver Center
05:11PM 39.6558 -100.0850 79° East 492 566 39,000  Level Denver Center
05:12PM 39.6783 -99.9289 79° East 492 566 39,000  Level Denver Center
05:14PM 39.7306 -99.5767 77° East 502 578 39,000  Level Minneapolis Center
05:15PM 39.7608 -99.4069 79° East 497 572 39,000  Level Minneapolis Center
05:17PM 39.8131 -99.0558 79° East 492 566 39,000  Level Minneapolis Center
05:18PM 39.8386 -98.8825 79° East 492 566 39,000  Level Minneapolis Center
05:19PM 39.8658 -98.7067 79° East 492 566 39,000  Level Minneapolis Center
05:20PM 39.8911 -98.5306 80° East 492 566 39,000  Level Minneapolis Center
05:21PM 39.9133 -98.3594 79° East 487 560 39,000  Level Minneapolis Center
05:22PM 39.9397 -98.1886 80° East 482 555 39,000  Level Minneapolis Center
05:23PM 39.9639 -98.0175 80° East 482 555 39,000  Level Minneapolis Center
05:24PM 39.9878 -97.8433 79° East 482 555 39,000  Level Minneapolis Center
05:25PM 40.0133 -97.6722 79° East 482 555 39,000  Level Minneapolis Center
05:26PM 40.0386 -97.4981 82° East 482 555 39,000  Level Minneapolis Center
05:27PM 40.0578 -97.3178 80° East 471 542 39,000  Level Minneapolis Center
05:28PM 40.0803 -97.1486 80° East 464 534 39,000  Level Minneapolis Center
05:29PM 40.1025 -96.9767 81° East 470 541 39,000  Level Minneapolis Center
05:30PM 40.1225 -96.8044 80° East 470 541 39,000  Level Minneapolis Center
05:31PM 40.1444 -96.6322 80° East 475 547 39,000  Level Minneapolis Center
05:32PM 40.1661 -96.4625 81° East 480 552 39,000  Level Minneapolis Center
05:33PM 40.1872 -96.2928 74° East 480 552 39,000  Level Minneapolis Center
05:34PM 40.2225 -96.1317 68° East 475 547 39,000  Level Minneapolis Center
05:35PM 40.2722 -95.9708 67° East 465 535 39,000  Level Minneapolis Center
05:36PM 40.3214 -95.8153 69° East 465 535 39,000  Level Minneapolis Center
05:37PM 40.3683 -95.6539 68° East 465 535 39,000  Level Minneapolis Center
05:38PM 40.4172 -95.4978 68° East 465 535 39,000  Level Minneapolis Center
05:39PM 40.4661 -95.3361 68° East 465 535 39,000  Level Minneapolis Center
05:40PM 40.5144 -95.1767 69° East 465 535 39,000  Level Minneapolis Center
05:41PM 40.5625 -95.0144 68° East 465 535 39,000  Level Minneapolis Center
05:42PM 40.6106 -94.8547 68° East 465 535 39,000  Level Minneapolis Center
05:43PM 40.6583 -94.6947 68° East 470 541 39,000  Level Minneapolis Center
05:44PM 40.7078 -94.5317 69° East 470 541 39,000  Level Minneapolis Center
05:45PM 40.7550 -94.3714 68° East 470 541 39,000  Level Minneapolis Center
05:47PM 40.8631 -94.0069 69° East 483 556 39,000  Level Chicago Center
05:48PM 40.9092 -93.8481 63° Northeast 470 541 39,000  Level Chicago Center
05:49PM 40.9672 -93.6953 55° Northeast 463 533 39,000  Level Chicago Center
05:50PM 41.0392 -93.5569 56° Northeast 453 521 39,000  Level Chicago Center
05:51PM 41.1108 -93.4153 57° Northeast 453 521 39,000  Level Chicago Center
05:52PM 41.1806 -93.2706 57° Northeast 458 527 39,000  Level Chicago Center
05:53PM 41.2500 -93.1283 57° Northeast 463 533 39,000  Level Chicago Center
05:54PM 41.3217 -92.9806 57° Northeast 463 533 39,000  Level Chicago Center
05:55PM 41.3950 -92.8322 57° Northeast 463 533 39,000  Level Chicago Center
05:56PM 41.4639 -92.6892 61° Northeast 463 533 39,000  Level Chicago Center
05:57PM 41.5289 -92.5314 55° Northeast 468 539 39,000  Level Chicago Center
05:58PM 41.6014 -92.3933 58° Northeast 468 539 39,000  Level Chicago Center
05:59PM 41.6697 -92.2492 59° Northeast 468 539 39,000  Level Chicago Center
06:00PM 41.7403 -92.0939 58° Northeast 463 533 39,000  Level Chicago Center
06:01PM 41.8083 -91.9492 59° Northeast 469 540 39,000  Level Chicago Center
06:02PM 41.8828 -91.7847 68° East 464 534 39,000  Level Chicago Center
06:03PM 41.9300 -91.6247 70° East 464 534 39,000  Level Chicago Center
06:04PM 41.9747 -91.4558 71° East 469 540 39,000 -300 Level Chicago Center
06:05PM 42.0194 -91.2839 70° East 469 540 38,500 -720 Descending Chicago Center
06:06PM 42.0617 -91.1258 72° East 469 540 37,600 -960 Descending Chicago Center
06:07PM 42.1017 -90.9592 70° East 463 533 36,600 -960 Descending Chicago Center
06:08PM 42.1497 -90.7811 72° East 468 539 35,700 -960 Descending Chicago Center
06:09PM 42.1892 -90.6194 71° East 468 539 34,700 -960 Descending Chicago Center
06:10PM 42.2306 -90.4519 71° East 468 539 33,800 -1,200 Descending Chicago Center
06:11PM 42.2739 -90.2786 71° East 468 539 32,400 -1,800 Descending Chicago Center
06:12PM 42.3125 -90.1303 72° East 468 539 30,300 -2,100 Descending Chicago Center
06:13PM 42.3508 -89.9736 73° East 456 525 28,200 -2,100 Descending Chicago Center
06:14PM 42.3892 -89.7997 71° East 435 501 26,200 -1,500 Descending Chicago Center
06:15PM 42.4272 -89.6508 72° East 424 488 25,200 -1,200 Descending Chicago Center
06:16PM 42.4631 -89.5047 72° East 414 476 23,900 -1,140 Descending Chicago Center
06:17PM 42.4983 -89.3583 73° East 414 476 23,000 -1,080 Descending Chicago Center
06:18PM 42.5317 -89.2117 74° East 403 464 21,800 -1,560 Descending Chicago Center
06:19PM 42.5628 -89.0681 75° East 403 464 19,900 -1,920 Descending Chicago Center
06:20PM 42.5894 -88.9297 75° East 391 450 18,000 -1,860 Descending Chicago Center
06:21PM 42.6158 -88.7914 76° East 377 434 16,200 -1,860 Descending Chicago Center
06:22PM 42.6403 -88.6583 76° East 370 426 14,300 -1,860 Descending Chicago Center
06:23PM 42.6622 -88.5339 76° East 358 412 12,500 -1,740 Descending Chicago Center
06:24PM 42.6842 -88.4094 75° East 341 392 10,900 -1,140 Descending Chicago Center
06:25PM 42.7061 -88.2989 18° North 310 357 10,300 -840 Descending Chicago Center
06:26PM 42.7644 -88.2725 341° North 242 278 9,300 -1,260 Descending Chicago Center
06:27PM 42.8272 -88.3025 339° North 269 310 7,800 -1,620 Descending Chicago Center
06:28PM 42.8836 -88.3328 41° Northeast 234 269 6,100 -1,440 Descending Chicago Center
06:29PM 42.9125 -88.2981 105° East 148 170 5,000 -840 Descending Chicago Center
06:30PM 42.8994 -88.2303 96° East 199 229 4,500 -900 Descending Chicago Center
06:31PM 42.8944 -88.1597 84° East 199 229 3,300 -900 Descending Chicago Center
06:32PM 42.9000 -88.0833 71° East 188 216 2,700 -600 Descending KMKE
06:33PM 42.9167 -88.0167 66° East 186 214 2,100 -600 Descending KMKE
06:34PM 42.9333 -87.9667 66° East 145 167 1,500 -720 Descending KMKE